Taylor, Pennsylvania
Current Conditions -  °F | °C
As of 2:51 PM on Thursday 23 Oct 2014 (Local Time) from KAVP Reporting Station
Light Rain Light Rain  
Wind Chill: 45°   Ceiling: 1600
Heat Index: 48°   Visibility: 2.5mi
Dew Point: 43°   Wind: 8mph
Humidity: 82%   Direction: 40°NE
Pressure: 29.85"   Gusts: 21mph
Location:  41.4°N, 75.72°W
Report Text: KAVP 231851Z AUTO 04007G18KT 2 1/2SM -RA OVC016 09/06 A2985 RMK AO2 P0001
Loading
Personal Weather Stations






























Interactive Weather Map
Tropical Storm Tracking
New forecast layout! Learn more

10-Day Weather Forecast

Advertisements
Track Severe Weather on mobile